sensor_id;sensor_type;location;lat;lon;timestamp;pressure;altitude;pressure_sealevel;temperature;humidity
61682;BME280;47577;43.610;25.010;2023-04-27T00:00:35;100210.44;;;10.85;88.48
61682;BME280;47577;43.610;25.010;2023-04-27T00:03:01;100195.38;;;10.86;87.78
61682;BME280;47577;43.610;25.010;2023-04-27T00:05:36;100204.78;;;10.94;87.87
61682;BME280;47577;43.610;25.010;2023-04-27T00:08:06;100212.88;;;10.91;87.91
61682;BME280;47577;43.610;25.010;2023-04-27T00:10:32;100216.44;;;10.92;87.77
61682;BME280;47577;43.610;25.010;2023-04-27T00:12:58;100222.50;;;10.95;87.17
61682;BME280;47577;43.610;25.010;2023-04-27T00:15:24;100221.69;;;10.93;87.33
61682;BME280;47577;43.610;25.010;2023-04-27T00:17:51;100221.81;;;10.90;89.25
61682;BME280;47577;43.610;25.010;2023-04-27T00:20:16;100220.41;;;10.80;87.14
61682;BME280;47577;43.610;25.010;2023-04-27T00:22:43;100219.72;;;10.75;87.10
61682;BME280;47577;43.610;25.010;2023-04-27T00:25:09;100219.94;;;10.45;89.54
61682;BME280;47577;43.610;25.010;2023-04-27T00:27:36;100221.38;;;10.29;88.42
61682;BME280;47577;43.610;25.010;2023-04-27T00:30:02;100214.88;;;10.37;87.88
61682;BME280;47577;43.610;25.010;2023-04-27T00:32:28;100224.03;;;10.54;89.94
61682;BME280;47577;43.610;25.010;2023-04-27T00:34:54;100222.00;;;10.60;89.31
61682;BME280;47577;43.610;25.010;2023-04-27T00:37:20;100233.19;;;10.70;89.17
61682;BME280;47577;43.610;25.010;2023-04-27T00:39:45;100233.34;;;10.66;86.71
61682;BME280;47577;43.610;25.010;2023-04-27T00:42:11;100232.09;;;10.76;89.43
61682;BME280;47577;43.610;25.010;2023-04-27T00:44:39;100239.97;;;10.79;87.95
61682;BME280;47577;43.610;25.010;2023-04-27T00:47:05;100236.47;;;10.77;87.35
61682;BME280;47577;43.610;25.010;2023-04-27T00:49:32;100240.28;;;10.70;85.90
61682;BME280;47577;43.610;25.010;2023-04-27T00:51:58;100243.69;;;10.73;85.62
61682;BME280;47577;43.610;25.010;2023-04-27T00:54:24;100242.78;;;10.74;87.10
61682;BME280;47577;43.610;25.010;2023-04-27T00:56:52;100251.56;;;10.76;88.29
61682;BME280;47577;43.610;25.010;2023-04-27T00:59:18;100248.91;;;10.76;89.11
61682;BME280;47577;43.610;25.010;2023-04-27T01:01:45;100249.06;;;10.72;89.05
61682;BME280;47577;43.610;25.010;2023-04-27T01:04:11;100254.56;;;10.67;88.52
61682;BME280;47577;43.610;25.010;2023-04-27T01:06:37;100255.50;;;10.66;89.17
61682;BME280;47577;43.610;25.010;2023-04-27T01:09:04;100252.00;;;10.64;89.45
61682;BME280;47577;43.610;25.010;2023-04-27T01:11:31;100262.59;;;10.66;89.67
61682;BME280;47577;43.610;25.010;2023-04-27T01:13:57;100257.47;;;10.61;87.48
61682;BME280;47577;43.610;25.010;2023-04-27T01:16:27;100261.91;;;10.60;86.73
61682;BME280;47577;43.610;25.010;2023-04-27T01:18:53;100255.81;;;10.57;87.49
61682;BME280;47577;43.610;25.010;2023-04-27T01:21:19;100251.72;;;10.48;87.80
61682;BME280;47577;43.610;25.010;2023-04-27T01:23:44;100258.22;;;10.39;86.94
61682;BME280;47577;43.610;25.010;2023-04-27T01:26:10;100269.53;;;10.45;87.94
61682;BME280;47577;43.610;25.010;2023-04-27T01:28:37;100268.53;;;10.49;87.99
61682;BME280;47577;43.610;25.010;2023-04-27T01:31:03;100264.91;;;10.51;85.97
61682;BME280;47577;43.610;25.010;2023-04-27T01:33:28;100262.72;;;10.37;86.70
61682;BME280;47577;43.610;25.010;2023-04-27T01:35:55;100263.75;;;10.32;85.76
61682;BME280;47577;43.610;25.010;2023-04-27T01:38:20;100265.31;;;10.12;86.90
61682;BME280;47577;43.610;25.010;2023-04-27T01:40:48;100266.84;;;10.19;86.99
61682;BME280;47577;43.610;25.010;2023-04-27T01:43:14;100277.13;;;10.30;87.88
61682;BME280;47577;43.610;25.010;2023-04-27T01:45:39;100280.19;;;10.18;88.42
61682;BME280;47577;43.610;25.010;2023-04-27T01:48:05;100270.03;;;10.04;87.72
61682;BME280;47577;43.610;25.010;2023-04-27T01:50:31;100281.31;;;10.11;89.05
61682;BME280;47577;43.610;25.010;2023-04-27T01:52:56;100275.34;;;10.04;87.32
61682;BME280;47577;43.610;25.010;2023-04-27T01:55:22;100268.66;;;9.92;86.15
61682;BME280;47577;43.610;25.010;2023-04-27T01:57:47;100282.53;;;10.00;85.30
61682;BME280;47577;43.610;25.010;2023-04-27T02:00:14;100271.50;;;9.86;83.93
61682;BME280;47577;43.610;25.010;2023-04-27T02:02:40;100275.78;;;9.63;85.71
61682;BME280;47577;43.610;25.010;2023-04-27T02:05:06;100273.06;;;9.65;87.33
61682;BME280;47577;43.610;25.010;2023-04-27T02:07:32;100284.28;;;9.46;86.22
61682;BME280;47577;43.610;25.010;2023-04-27T02:09:57;100280.81;;;9.44;85.42
61682;BME280;47577;43.610;25.010;2023-04-27T02:12:23;100278.34;;;9.38;86.32
61682;BME280;47577;43.610;25.010;2023-04-27T02:14:48;100276.81;;;9.29;87.83
61682;BME280;47577;43.610;25.010;2023-04-27T02:17:14;100270.84;;;9.23;88.14
61682;BME280;47577;43.610;25.010;2023-04-27T02:19:40;100276.94;;;9.25;87.42
61682;BME280;47577;43.610;25.010;2023-04-27T02:22:06;100269.50;;;9.08;87.36
61682;BME280;47577;43.610;25.010;2023-04-27T02:24:31;100283.09;;;9.27;89.71
61682;BME280;47577;43.610;25.010;2023-04-27T02:26:57;100277.22;;;9.17;89.27
61682;BME280;47577;43.610;25.010;2023-04-27T02:29:22;100279.69;;;9.23;91.56
61682;BME280;47577;43.610;25.010;2023-04-27T02:31:48;100276.13;;;9.23;90.06
61682;BME280;47577;43.610;25.010;2023-04-27T02:34:13;100284.19;;;9.20;89.88
61682;BME280;47577;43.610;25.010;2023-04-27T02:36:39;100272.72;;;9.19;90.47
61682;BME280;47577;43.610;25.010;2023-04-27T02:39:05;100289.53;;;9.18;91.08
61682;BME280;47577;43.610;25.010;2023-04-27T02:41:31;100282.72;;;8.80;90.61
61682;BME280;47577;43.610;25.010;2023-04-27T02:43:57;100282.66;;;8.81;91.42
61682;BME280;47577;43.610;25.010;2023-04-27T02:46:22;100282.94;;;9.02;90.55
61682;BME280;47577;43.610;25.010;2023-04-27T02:48:48;100288.59;;;9.21;89.50
61682;BME280;47577;43.610;25.010;2023-04-27T02:51:13;100289.91;;;9.36;88.72
61682;BME280;47577;43.610;25.010;2023-04-27T02:53:39;100291.66;;;9.37;90.15
61682;BME280;47577;43.610;25.010;2023-04-27T02:56:05;100294.34;;;9.35;88.14
61682;BME280;47577;43.610;25.010;2023-04-27T02:58:31;100293.41;;;9.36;88.21
61682;BME280;47577;43.610;25.010;2023-04-27T03:00:56;100294.31;;;9.37;86.45
61682;BME280;47577;43.610;25.010;2023-04-27T03:03:22;100289.94;;;9.34;89.54
61682;BME280;47577;43.610;25.010;2023-04-27T03:05:48;100289.91;;;9.36;88.24
61682;BME280;47577;43.610;25.010;2023-04-27T03:08:14;100293.50;;;9.35;88.46
61682;BME280;47577;43.610;25.010;2023-04-27T03:10:40;100294.25;;;9.38;89.07
61682;BME280;47577;43.610;25.010;2023-04-27T03:13:05;100299.13;;;9.52;89.04
61682;BME280;47577;43.610;25.010;2023-04-27T03:15:31;100291.16;;;9.52;88.69
61682;BME280;47577;43.610;25.010;2023-04-27T03:17:56;100297.41;;;9.51;89.35
61682;BME280;47577;43.610;25.010;2023-04-27T03:20:22;100302.59;;;9.56;87.13
61682;BME280;47577;43.610;25.010;2023-04-27T03:22:48;100286.47;;;9.60;87.35
61682;BME280;47577;43.610;25.010;2023-04-27T03:25:13;100315.50;;;9.66;87.83
61682;BME280;47577;43.610;25.010;2023-04-27T03:27:39;100301.34;;;9.38;86.60
61682;BME280;47577;43.610;25.010;2023-04-27T03:30:05;100313.66;;;9.40;87.52
61682;BME280;47577;43.610;25.010;2023-04-27T03:32:31;100308.44;;;9.37;86.89
61682;BME280;47577;43.610;25.010;2023-04-27T03:34:57;100301.50;;;9.33;87.05
61682;BME280;47577;43.610;25.010;2023-04-27T03:37:22;100314.66;;;9.36;86.05
61682;BME280;47577;43.610;25.010;2023-04-27T03:39:48;100319.03;;;9.37;85.48
61682;BME280;47577;43.610;25.010;2023-04-27T03:42:13;100319.53;;;9.50;87.77
61682;BME280;47577;43.610;25.010;2023-04-27T03:44:39;100322.25;;;9.48;85.16
61682;BME280;47577;43.610;25.010;2023-04-27T03:47:05;100331.13;;;9.47;86.14
61682;BME280;47577;43.610;25.010;2023-04-27T03:49:36;100325.34;;;9.35;85.69
61682;BME280;47577;43.610;25.010;2023-04-27T03:52:01;100322.50;;;9.39;86.29
61682;BME280;47577;43.610;25.010;2023-04-27T03:54:29;100336.81;;;9.35;85.88
61682;BME280;47577;43.610;25.010;2023-04-27T03:56:55;100329.56;;;9.40;84.81
61682;BME280;47577;43.610;25.010;2023-04-27T03:59:20;100333.00;;;9.44;85.69
61682;BME280;47577;43.610;25.010;2023-04-27T04:01:46;100333.53;;;9.55;85.59
61682;BME280;47577;43.610;25.010;2023-04-27T04:04:12;100340.50;;;9.59;86.93
61682;BME280;47577;43.610;25.010;2023-04-27T04:06:37;100344.88;;;9.60;87.51
61682;BME280;47577;43.610;25.010;2023-04-27T04:09:03;100351.03;;;9.62;86.72
61682;BME280;47577;43.610;25.010;2023-04-27T04:11:29;100350.19;;;9.60;87.59
61682;BME280;47577;43.610;25.010;2023-04-27T04:13:54;100347.69;;;9.56;86.80
61682;BME280;47577;43.610;25.010;2023-04-27T04:16:20;100343.22;;;9.58;85.59
61682;BME280;47577;43.610;25.010;2023-04-27T04:18:45;100355.47;;;9.62;85.05
61682;BME280;47577;43.610;25.010;2023-04-27T04:21:11;100357.03;;;9.69;87.05
61682;BME280;47577;43.610;25.010;2023-04-27T04:23:37;100352.00;;;9.60;87.95
61682;BME280;47577;43.610;25.010;2023-04-27T04:26:03;100374.00;;;9.63;86.11
61682;BME280;47577;43.610;25.010;2023-04-27T04:28:29;100363.41;;;9.62;86.43
61682;BME280;47577;43.610;25.010;2023-04-27T04:30:55;100361.41;;;9.70;85.12
61682;BME280;47577;43.610;25.010;2023-04-27T04:33:21;100359.81;;;9.64;84.82
61682;BME280;47577;43.610;25.010;2023-04-27T04:35:46;100365.16;;;9.63;82.11
61682;BME280;47577;43.610;25.010;2023-04-27T04:38:12;100368.53;;;9.68;84.96
61682;BME280;47577;43.610;25.010;2023-04-27T04:40:38;100364.84;;;9.74;87.27
61682;BME280;47577;43.610;25.010;2023-04-27T04:43:04;100359.59;;;9.72;85.69
61682;BME280;47577;43.610;25.010;2023-04-27T04:45:30;100362.44;;;9.66;83.60
61682;BME280;47577;43.610;25.010;2023-04-27T04:47:56;100374.84;;;9.65;80.85
61682;BME280;47577;43.610;25.010;2023-04-27T04:50:22;100374.75;;;9.67;83.31
61682;BME280;47577;43.610;25.010;2023-04-27T04:52:48;100379.25;;;9.65;83.85
61682;BME280;47577;43.610;25.010;2023-04-27T04:55:14;100373.84;;;9.68;82.02
61682;BME280;47577;43.610;25.010;2023-04-27T04:57:40;100386.19;;;9.70;80.96
61682;BME280;47577;43.610;25.010;2023-04-27T05:00:06;100384.53;;;9.66;81.99
61682;BME280;47577;43.610;25.010;2023-04-27T05:02:36;100387.41;;;9.59;83.57
61682;BME280;47577;43.610;25.010;2023-04-27T05:05:03;100395.97;;;9.68;79.88
61682;BME280;47577;43.610;25.010;2023-04-27T05:07:28;100394.50;;;9.58;79.88
61682;BME280;47577;43.610;25.010;2023-04-27T05:09:54;100404.91;;;9.66;80.99
61682;BME280;47577;43.610;25.010;2023-04-27T05:12:20;100397.63;;;9.73;82.06
61682;BME280;47577;43.610;25.010;2023-04-27T05:14:45;100403.88;;;9.70;83.96
61682;BME280;47577;43.610;25.010;2023-04-27T05:17:12;100404.22;;;9.59;81.24
61682;BME280;47577;43.610;25.010;2023-04-27T05:19:38;100413.81;;;9.63;78.43
61682;BME280;47577;43.610;25.010;2023-04-27T05:22:04;100398.22;;;9.52;80.11
61682;BME280;47577;43.610;25.010;2023-04-27T05:24:30;100412.88;;;9.66;82.92
61682;BME280;47577;43.610;25.010;2023-04-27T05:26:55;100416.38;;;9.66;82.30
61682;BME280;47577;43.610;25.010;2023-04-27T05:29:21;100414.38;;;9.75;82.09
61682;BME280;47577;43.610;25.010;2023-04-27T05:31:47;100413.16;;;9.55;79.28
61682;BME280;47577;43.610;25.010;2023-04-27T05:34:13;100411.25;;;9.60;79.11
61682;BME280;47577;43.610;25.010;2023-04-27T05:36:38;100420.66;;;9.41;80.96
61682;BME280;47577;43.610;25.010;2023-04-27T05:39:04;100423.75;;;9.57;81.83
61682;BME280;47577;43.610;25.010;2023-04-27T05:41:30;100423.47;;;9.66;80.96
61682;BME280;47577;43.610;25.010;2023-04-27T05:43:56;100419.63;;;9.46;78.25
61682;BME280;47577;43.610;25.010;2023-04-27T05:46:21;100423.84;;;9.54;80.27
61682;BME280;47577;43.610;25.010;2023-04-27T05:48:47;100425.84;;;9.45;77.82
61682;BME280;47577;43.610;25.010;2023-04-27T05:51:12;100424.97;;;9.45;79.52
61682;BME280;47577;43.610;25.010;2023-04-27T05:53:38;100431.16;;;9.14;82.01
61682;BME280;47577;43.610;25.010;2023-04-27T05:56:04;100428.94;;;9.30;84.28
61682;BME280;47577;43.610;25.010;2023-04-27T05:58:33;100421.72;;;9.35;83.53
61682;BME280;47577;43.610;25.010;2023-04-27T06:01:02;100429.00;;;8.94;77.31
61682;BME280;47577;43.610;25.010;2023-04-27T06:03:29;100418.28;;;9.31;80.82
61682;BME280;47577;43.610;25.010;2023-04-27T06:05:56;100427.16;;;9.30;78.09
61682;BME280;47577;43.610;25.010;2023-04-27T06:08:22;100447.97;;;9.13;79.15
61682;BME280;47577;43.610;25.010;2023-04-27T06:10:49;100438.47;;;9.37;82.73
61682;BME280;47577;43.610;25.010;2023-04-27T06:13:15;100441.78;;;9.45;80.07
61682;BME280;47577;43.610;25.010;2023-04-27T06:15:40;100438.91;;;9.53;81.58
61682;BME280;47577;43.610;25.010;2023-04-27T06:18:06;100435.06;;;9.63;78.21
61682;BME280;47577;43.610;25.010;2023-04-27T06:20:32;100436.53;;;9.74;78.33
61682;BME280;47577;43.610;25.010;2023-04-27T06:22:58;100435.38;;;9.82;79.94
61682;BME280;47577;43.610;25.010;2023-04-27T06:25:25;100426.31;;;9.89;80.79
61682;BME280;47577;43.610;25.010;2023-04-27T06:27:55;100414.81;;;9.89;79.16
61682;BME280;47577;43.610;25.010;2023-04-27T06:30:21;100422.69;;;9.92;78.23
61682;BME280;47577;43.610;25.010;2023-04-27T06:32:48;100412.94;;;9.93;79.47
61682;BME280;47577;43.610;25.010;2023-04-27T06:35:13;100408.09;;;10.05;77.51
61682;BME280;47577;43.610;25.010;2023-04-27T06:37:39;100403.81;;;10.01;78.24
61682;BME280;47577;43.610;25.010;2023-04-27T06:40:06;100417.59;;;10.14;76.21
61682;BME280;47577;43.610;25.010;2023-04-27T06:42:33;100415.50;;;9.96;77.75
61682;BME280;47577;43.610;25.010;2023-04-27T06:44:58;100416.34;;;9.68;76.23
61682;BME280;47577;43.610;25.010;2023-04-27T06:47:24;100420.56;;;9.75;81.92
61682;BME280;47577;43.610;25.010;2023-04-27T06:49:50;100434.34;;;9.88;77.87
61682;BME280;47577;43.610;25.010;2023-04-27T06:52:15;100421.16;;;9.85;77.25
61682;BME280;47577;43.610;25.010;2023-04-27T06:54:41;100425.53;;;9.86;75.82
61682;BME280;47577;43.610;25.010;2023-04-27T06:57:07;100415.59;;;9.93;79.02
61682;BME280;47577;43.610;25.010;2023-04-27T06:59:33;100428.50;;;10.05;78.74
61682;BME280;47577;43.610;25.010;2023-04-27T07:01:58;100427.63;;;10.04;76.29
61682;BME280;47577;43.610;25.010;2023-04-27T07:04:24;100435.34;;;10.12;75.25
61682;BME280;47577;43.610;25.010;2023-04-27T07:06:50;100427.84;;;10.25;76.26
61682;BME280;47577;43.610;25.010;2023-04-27T07:09:15;100429.41;;;10.34;75.12
61682;BME280;47577;43.610;25.010;2023-04-27T07:11:41;100440.94;;;10.31;74.35
61682;BME280;47577;43.610;25.010;2023-04-27T07:14:07;100437.81;;;10.18;72.26
61682;BME280;47577;43.610;25.010;2023-04-27T07:16:32;100433.34;;;10.20;74.00
61682;BME280;47577;43.610;25.010;2023-04-27T07:50:22;100433.25;;;11.04;73.22
61682;BME280;47577;43.610;25.010;2023-04-27T07:52:50;100431.94;;;10.90;73.72
61682;BME280;47577;43.610;25.010;2023-04-27T08:11:10;100446.44;;;11.81;67.59
61682;BME280;47577;43.610;25.010;2023-04-27T08:13:36;100446.03;;;11.68;67.96
61682;BME280;47577;43.610;25.010;2023-04-27T08:16:02;100440.03;;;11.61;68.13
61682;BME280;47577;43.610;25.010;2023-04-27T08:18:28;100439.13;;;11.62;71.91
61682;BME280;47577;43.610;25.010;2023-04-27T08:20:54;100447.84;;;11.66;67.10
61682;BME280;47577;43.610;25.010;2023-04-27T08:23:20;100440.97;;;11.60;70.65
61682;BME280;47577;43.610;25.010;2023-04-27T08:25:46;100440.63;;;11.69;70.34
61682;BME280;47577;43.610;25.010;2023-04-27T08:28:13;100438.44;;;11.81;68.46
61682;BME280;47577;43.610;25.010;2023-04-27T08:30:41;100440.28;;;11.55;67.17
61682;BME280;47577;43.610;25.010;2023-04-27T08:33:07;100435.81;;;11.56;70.51
61682;BME280;47577;43.610;25.010;2023-04-27T08:35:33;100430.31;;;11.60;71.57
61682;BME280;47577;43.610;25.010;2023-04-27T08:37:58;100425.03;;;11.82;73.67
61682;BME280;47577;43.610;25.010;2023-04-27T08:40:24;100428.56;;;12.06;69.50
61682;BME280;47577;43.610;25.010;2023-04-27T08:42:55;100422.06;;;11.92;68.45
61682;BME280;47577;43.610;25.010;2023-04-27T08:45:22;100431.28;;;12.05;69.93
61682;BME280;47577;43.610;25.010;2023-04-27T08:47:48;100424.06;;;12.09;69.66
61682;BME280;47577;43.610;25.010;2023-04-27T08:50:14;100429.31;;;12.32;68.59
61682;BME280;47577;43.610;25.010;2023-04-27T08:52:44;100422.44;;;12.49;71.09
61682;BME280;47577;43.610;25.010;2023-04-27T08:55:10;100427.56;;;12.53;68.82
61682;BME280;47577;43.610;25.010;2023-04-27T08:57:37;100424.13;;;12.29;71.08
61682;BME280;47577;43.610;25.010;2023-04-27T09:00:03;100415.94;;;12.56;70.79
61682;BME280;47577;43.610;25.010;2023-04-27T09:02:44;100421.91;;;12.83;70.77
61682;BME280;47577;43.610;25.010;2023-04-27T09:05:18;100423.09;;;12.96;69.71
61682;BME280;47577;43.610;25.010;2023-04-27T09:07:57;100417.53;;;12.80;68.02
61682;BME280;47577;43.610;25.010;2023-04-27T09:10:23;100409.47;;;12.82;68.21
61682;BME280;47577;43.610;25.010;2023-04-27T09:12:57;100416.16;;;12.92;67.54
61682;BME280;47577;43.610;25.010;2023-04-27T09:15:23;100404.63;;;12.92;70.06
61682;BME280;47577;43.610;25.010;2023-04-27T09:17:55;100406.56;;;13.09;70.34
61682;BME280;47577;43.610;25.010;2023-04-27T09:20:22;100409.19;;;13.29;67.35
61682;BME280;47577;43.610;25.010;2023-04-27T09:22:52;100409.69;;;13.58;69.19
61682;BME280;47577;43.610;25.010;2023-04-27T09:27:50;100413.09;;;13.62;68.79
61682;BME280;47577;43.610;25.010;2023-04-27T09:30:16;100402.53;;;13.59;65.83
61682;BME280;47577;43.610;25.010;2023-04-27T09:33:00;100399.47;;;13.68;65.14
61682;BME280;47577;43.610;25.010;2023-04-27T09:35:28;100403.72;;;13.72;66.32
61682;BME280;47577;43.610;25.010;2023-04-27T09:37:56;100396.22;;;13.80;64.18
61682;BME280;47577;43.610;25.010;2023-04-27T09:40:26;100400.53;;;13.83;63.24
61682;BME280;47577;43.610;25.010;2023-04-27T09:42:58;100400.25;;;13.70;63.41
61682;BME280;47577;43.610;25.010;2023-04-27T09:45:25;100383.94;;;13.76;67.61
61682;BME280;47577;43.610;25.010;2023-04-27T09:47:51;100385.75;;;13.76;65.21
61682;BME280;47577;43.610;25.010;2023-04-27T09:50:17;100387.47;;;13.77;69.63
61682;BME280;47577;43.610;25.010;2023-04-27T09:52:44;100384.84;;;14.13;67.82
61682;BME280;47577;43.610;25.010;2023-04-27T09:55:17;100380.41;;;14.12;65.91
61682;BME280;47577;43.610;25.010;2023-04-27T10:00:42;100382.50;;;14.24;64.59
61682;BME280;47577;43.610;25.010;2023-04-27T10:03:32;100378.06;;;14.06;65.97
61682;BME280;47577;43.610;25.010;2023-04-27T10:08:40;100381.44;;;14.29;64.44
61682;BME280;47577;43.610;25.010;2023-04-27T10:11:15;100374.13;;;14.50;65.36
61682;BME280;47577;43.610;25.010;2023-04-27T10:13:53;100370.94;;;14.60;64.05
61682;BME280;47577;43.610;25.010;2023-04-27T10:16:20;100368.28;;;14.41;64.49
61682;BME280;47577;43.610;25.010;2023-04-27T10:18:53;100369.50;;;13.61;64.33
61682;BME280;47577;43.610;25.010;2023-04-27T10:21:20;100369.44;;;14.18;64.59
61682;BME280;47577;43.610;25.010;2023-04-27T10:23:47;100370.09;;;14.41;65.11
61682;BME280;47577;43.610;25.010;2023-04-27T10:26:24;100362.69;;;14.46;66.70
61682;BME280;47577;43.610;25.010;2023-04-27T10:29:16;100371.19;;;14.54;64.99
61682;BME280;47577;43.610;25.010;2023-04-27T10:31:46;100372.09;;;14.55;65.93
61682;BME280;47577;43.610;25.010;2023-04-27T10:34:17;100372.94;;;14.55;64.23
61682;BME280;47577;43.610;25.010;2023-04-27T10:36:43;100374.50;;;14.61;63.94
61682;BME280;47577;43.610;25.010;2023-04-27T10:39:33;100373.00;;;14.36;63.45
61682;BME280;47577;43.610;25.010;2023-04-27T10:41:59;100361.63;;;14.50;64.18
61682;BME280;47577;43.610;25.010;2023-04-27T10:44:27;100368.66;;;14.70;65.14
61682;BME280;47577;43.610;25.010;2023-04-27T10:46:54;100369.25;;;14.93;62.69
61682;BME280;47577;43.610;25.010;2023-04-27T10:49:21;100361.59;;;15.03;61.13
61682;BME280;47577;43.610;25.010;2023-04-27T10:51:49;100360.00;;;15.16;59.92
61682;BME280;47577;43.610;25.010;2023-04-27T10:54:15;100363.09;;;15.42;60.95
61682;BME280;47577;43.610;25.010;2023-04-27T10:56:41;100361.13;;;15.45;56.55
61682;BME280;47577;43.610;25.010;2023-04-27T10:59:07;100360.16;;;15.96;60.87
61682;BME280;47577;43.610;25.010;2023-04-27T11:01:34;100358.09;;;15.67;55.69
61682;BME280;47577;43.610;25.010;2023-04-27T11:04:01;100358.06;;;15.85;61.10
61682;BME280;47577;43.610;25.010;2023-04-27T11:06:29;100354.16;;;15.75;57.03
61682;BME280;47577;43.610;25.010;2023-04-27T11:08:56;100351.47;;;15.75;59.16
61682;BME280;47577;43.610;25.010;2023-04-27T11:11:22;100357.00;;;15.71;57.55
61682;BME280;47577;43.610;25.010;2023-04-27T11:13:48;100354.03;;;15.78;56.06
61682;BME280;47577;43.610;25.010;2023-04-27T11:16:15;100352.03;;;15.97;57.68
61682;BME280;47577;43.610;25.010;2023-04-27T11:18:40;100346.00;;;16.24;61.18
61682;BME280;47577;43.610;25.010;2023-04-27T11:21:14;100346.41;;;16.32;59.93
61682;BME280;47577;43.610;25.010;2023-04-27T11:23:41;100350.44;;;16.25;61.75
61682;BME280;47577;43.610;25.010;2023-04-27T11:28:43;100351.53;;;16.21;57.31
61682;BME280;47577;43.610;25.010;2023-04-27T11:31:09;100351.31;;;15.94;59.92
61682;BME280;47577;43.610;25.010;2023-04-27T11:33:35;100362.66;;;15.83;63.17
61682;BME280;47577;43.610;25.010;2023-04-27T11:36:15;100355.22;;;16.04;65.55
61682;BME280;47577;43.610;25.010;2023-04-27T11:38:41;100354.75;;;16.12;64.55
61682;BME280;47577;43.610;25.010;2023-04-27T11:41:07;100358.53;;;16.39;63.44
61682;BME280;47577;43.610;25.010;2023-04-27T11:43:33;100345.66;;;16.30;63.73
61682;BME280;47577;43.610;25.010;2023-04-27T11:46:03;100345.53;;;16.48;64.02
61682;BME280;47577;43.610;25.010;2023-04-27T11:48:29;100350.19;;;16.74;61.25
61682;BME280;47577;43.610;25.010;2023-04-27T11:50:57;100349.78;;;16.66;59.54
61682;BME280;47577;43.610;25.010;2023-04-27T11:53:34;100356.56;;;16.57;59.07
61682;BME280;47577;43.610;25.010;2023-04-27T11:56:02;100351.16;;;16.43;62.79
61682;BME280;47577;43.610;25.010;2023-04-27T11:58:35;100353.16;;;16.39;61.71
61682;BME280;47577;43.610;25.010;2023-04-27T12:01:02;100355.75;;;16.41;60.46
61682;BME280;47577;43.610;25.010;2023-04-27T12:03:28;100355.72;;;16.11;58.01
61682;BME280;47577;43.610;25.010;2023-04-27T12:05:55;100350.59;;;16.22;62.47
61682;BME280;47577;43.610;25.010;2023-04-27T12:08:21;100344.38;;;16.21;61.59
61682;BME280;47577;43.610;25.010;2023-04-27T12:10:47;100359.50;;;16.06;60.39
61682;BME280;47577;43.610;25.010;2023-04-27T12:13:13;100353.13;;;15.93;61.05
61682;BME280;47577;43.610;25.010;2023-04-27T12:15:39;100348.97;;;16.03;60.49
61682;BME280;47577;43.610;25.010;2023-04-27T12:18:06;100356.31;;;16.16;62.96
61682;BME280;47577;43.610;25.010;2023-04-27T12:20:33;100342.38;;;16.25;62.02
61682;BME280;47577;43.610;25.010;2023-04-27T12:22:58;100347.38;;;16.31;62.89
61682;BME280;47577;43.610;25.010;2023-04-27T12:25:24;100343.72;;;16.32;61.78
61682;BME280;47577;43.610;25.010;2023-04-27T12:27:49;100348.00;;;15.57;56.12
61682;BME280;47577;43.610;25.010;2023-04-27T12:30:16;100348.66;;;15.78;53.10
61682;BME280;47577;43.610;25.010;2023-04-27T12:32:42;100347.94;;;16.06;61.53
61682;BME280;47577;43.610;25.010;2023-04-27T12:35:08;100344.91;;;16.12;64.23
61682;BME280;47577;43.610;25.010;2023-04-27T12:37:37;100353.53;;;16.17;64.25
61682;BME280;47577;43.610;25.010;2023-04-27T12:40:03;100336.50;;;16.18;64.60
61682;BME280;47577;43.610;25.010;2023-04-27T12:42:31;100335.09;;;16.27;62.96
61682;BME280;47577;43.610;25.010;2023-04-27T12:44:56;100340.53;;;16.25;60.85
61682;BME280;47577;43.610;25.010;2023-04-27T12:47:22;100329.47;;;16.32;62.38
61682;BME280;47577;43.610;25.010;2023-04-27T12:49:48;100325.94;;;16.31;60.26
61682;BME280;47577;43.610;25.010;2023-04-27T12:52:13;100333.25;;;16.27;57.21
61682;BME280;47577;43.610;25.010;2023-04-27T12:54:39;100331.47;;;16.28;53.10
61682;BME280;47577;43.610;25.010;2023-04-27T12:57:05;100341.53;;;16.39;55.23
61682;BME280;47577;43.610;25.010;2023-04-27T12:59:37;100329.22;;;16.20;52.54
61682;BME280;47577;43.610;25.010;2023-04-27T13:02:03;100332.16;;;16.62;53.58
61682;BME280;47577;43.610;25.010;2023-04-27T13:04:30;100335.00;;;17.04;53.46
61682;BME280;47577;43.610;25.010;2023-04-27T13:06:56;100325.81;;;17.22;49.06
61682;BME280;47577;43.610;25.010;2023-04-27T13:09:28;100321.66;;;17.45;51.07
61682;BME280;47577;43.610;25.010;2023-04-27T13:11:54;100318.84;;;17.76;47.02
61682;BME280;47577;43.610;25.010;2023-04-27T13:14:20;100321.03;;;17.83;47.74
61682;BME280;47577;43.610;25.010;2023-04-27T13:16:46;100308.47;;;18.11;43.72
61682;BME280;47577;43.610;25.010;2023-04-27T13:19:12;100314.81;;;18.10;41.94
61682;BME280;47577;43.610;25.010;2023-04-27T13:21:37;100309.47;;;17.96;39.86
61682;BME280;47577;43.610;25.010;2023-04-27T13:24:03;100314.56;;;18.27;42.18
61682;BME280;47577;43.610;25.010;2023-04-27T13:26:29;100303.28;;;18.48;42.51
61682;BME280;47577;43.610;25.010;2023-04-27T13:28:55;100302.75;;;18.56;40.85
61682;BME280;47577;43.610;25.010;2023-04-27T13:31:22;100311.28;;;18.75;41.75
61682;BME280;47577;43.610;25.010;2023-04-27T13:33:47;100315.81;;;17.53;41.97
61682;BME280;47577;43.610;25.010;2023-04-27T13:36:13;100307.00;;;18.20;43.79
61682;BME280;47577;43.610;25.010;2023-04-27T13:38:39;100311.09;;;18.25;42.06